Time;durP1;ratioP1;P1;durP2;ratioP2;P2;SDS_P1;SDS_P2;PMS_P1;PMS_P2;Temp;Humidity;BMP_temperature;BMP_pressure;BME280_temperature;BME280_humidity;BME280_pressure;Samples;Min_cycle;Max_cycle;Signal;HPM_P1;HPM_P2
2023/05/27 00:01:40;;;;;;;1.70;1.60;;;20.90;69.10;;;;;;5092675;28;43410;-69
2023/05/27 00:04:08;;;;;;;1.70;1.70;;;20.90;69.30;;;;;;5092813;27;43411;-70
2023/05/27 00:06:36;;;;;;;1.57;1.57;;;20.80;69.30;;;;;;5085015;28;43956;-69
2023/05/27 00:09:04;;;;;;;1.60;1.60;;;20.80;69.50;;;;;;5092414;27;43715;-70
2023/05/27 00:11:32;;;;;;;1.77;1.77;;;20.80;69.60;;;;;;5092157;28;43482;-70
2023/05/27 00:14:00;;;;;;;1.60;1.60;;;20.80;69.50;;;;;;5093388;27;43447;-69
2023/05/27 00:16:28;;;;;;;1.53;1.53;;;20.80;69.50;;;;;;5091479;28;43920;-69
2023/05/27 00:18:59;;;;;;;1.60;1.60;;;20.70;69.50;;;;;;5092457;27;43437;-72
2023/05/27 00:21:27;;;;;;;2.03;2.00;;;20.70;69.70;;;;;;5092190;28;43381;-72
2023/05/27 00:23:57;;;;;;;1.60;1.60;;;20.80;70.40;;;;;;5092429;28;43442;-69
2023/05/27 00:26:25;;;;;;;1.90;1.80;;;20.90;69.20;;;;;;5087891;27;43842;-69
2023/05/27 00:28:53;;;;;;;1.50;1.50;;;21.00;68.80;;;;;;5090509;28;43963;-69
2023/05/27 00:31:22;;;;;;;1.70;1.70;;;21.20;68.60;;;;;;5090610;27;44008;-69
2023/05/27 00:33:50;;;;;;;1.50;1.50;;;21.10;68.50;;;;;;5093350;27;43411;-70
2023/05/27 00:36:20;;;;;;;1.50;1.50;;;21.10;68.50;;;;;;5092131;27;43863;-70
2023/05/27 00:38:48;;;;;;;1.57;1.57;;;21.00;68.60;;;;;;5090616;28;44766;-69
2023/05/27 00:41:16;;;;;;;1.77;1.77;;;21.00;68.80;;;;;;5094516;27;43402;-70
2023/05/27 00:43:44;;;;;;;1.73;1.63;;;20.90;69.10;;;;;;5091074;27;43388;-69
2023/05/27 00:46:12;;;;;;;1.60;1.60;;;20.90;69.20;;;;;;5083335;28;45690;-69
2023/05/27 00:48:40;;;;;;;1.60;1.60;;;20.90;69.20;;;;;;5091661;28;43411;-70
2023/05/27 00:51:08;;;;;;;1.60;1.60;;;20.80;69.10;;;;;;5090312;28;43415;-70
2023/05/27 00:53:40;;;;;;;1.50;1.50;;;20.80;69.20;;;;;;5090968;27;44124;-70
2023/05/27 00:56:08;;;;;;;1.80;1.80;;;20.80;69.60;;;;;;5098960;27;46048;-69
2023/05/27 00:58:36;;;;;;;1.63;1.63;;;20.80;69.50;;;;;;5084940;28;43449;-69
2023/05/27 01:01:04;;;;;;;1.40;1.40;;;20.90;69.10;;;;;;5090327;28;43581;-71
2023/05/27 01:03:33;;;;;;;1.67;1.67;;;20.90;69.00;;;;;;5084143;27;43823;-69
2023/05/27 01:06:12;;;;;;;1.63;1.63;;;21.00;69.00;;;;;;5085651;27;45344;-70
2023/05/27 01:08:46;;;;;;;1.60;1.60;;;21.00;69.10;;;;;;5086825;27;43449;-70
2023/05/27 01:11:14;;;;;;;1.70;1.70;;;20.90;69.10;;;;;;5081092;28;43491;-70
2023/05/27 01:13:44;;;;;;;1.60;1.60;;;20.90;69.10;;;;;;5086269;28;43536;-71
2023/05/27 01:16:14;;;;;;;1.40;1.40;;;20.90;69.10;;;;;;5085448;27;45386;-69
2023/05/27 01:18:44;;;;;;;1.70;1.70;;;20.90;69.20;;;;;;5086791;27;43405;-70
2023/05/27 01:21:14;;;;;;;1.67;1.67;;;20.80;69.10;;;;;;5084231;27;44065;-71
2023/05/27 01:23:44;;;;;;;1.80;1.80;;;20.80;69.50;;;;;;5086660;27;43335;-69
2023/05/27 01:26:12;;;;;;;1.70;1.60;;;20.80;69.50;;;;;;5086670;27;43598;-69
2023/05/27 01:28:40;;;;;;;1.50;1.50;;;20.80;69.40;;;;;;5086990;27;43516;-69
2023/05/27 01:31:14;;;;;;;1.50;1.50;;;20.70;69.30;;;;;;5082485;27;43469;-70
2023/05/27 01:33:44;;;;;;;1.60;1.60;;;20.70;69.50;;;;;;5085599;28;43804;-69
2023/05/27 01:36:14;;;;;;;1.70;1.70;;;20.70;69.70;;;;;;5086911;28;43924;-69
2023/05/27 01:38:44;;;;;;;1.80;1.80;;;20.80;69.40;;;;;;5089401;27;43710;-70
2023/05/27 01:41:13;;;;;;;1.47;1.47;;;21.00;69.00;;;;;;5085508;28;43972;-69
2023/05/27 01:43:41;;;;;;;1.70;1.60;;;21.10;68.60;;;;;;5084010;27;43516;-70
2023/05/27 01:46:09;;;;;;;1.60;1.60;;;21.10;68.50;;;;;;5075485;27;43793;-70
2023/05/27 01:48:38;;;;;;;1.40;1.40;;;21.10;68.60;;;;;;5085335;28;44761;-69
2023/05/27 01:51:06;;;;;;;1.70;1.70;;;21.00;68.50;;;;;;5086639;27;43400;-69
2023/05/27 01:53:35;;;;;;;1.50;1.50;;;21.00;68.70;;;;;;5084829;28;43901;-69
2023/05/27 01:56:05;;;;;;;1.90;1.80;;;20.90;69.10;;;;;;5083345;27;43894;-69
2023/05/27 01:58:34;;;;;;;1.73;1.63;;;20.90;69.20;;;;;;5087932;27;43365;-69
2023/05/27 02:01:02;;;;;;;1.50;1.50;;;20.80;69.90;;;;;;5088166;28;43984;-69
2023/05/27 02:03:31;;;;;;;1.47;1.47;;;20.80;69.10;;;;;;5088463;28;43580;-69
2023/05/27 02:05:59;;;;;;;1.53;1.53;;;20.80;69.10;;;;;;5088156;28;44884;-70
2023/05/27 02:08:27;;;;;;;1.87;1.73;;;20.80;69.50;;;;;;5089948;28;43933;-71
2023/05/27 02:10:55;;;;;;;1.40;1.40;;;20.80;69.50;;;;;;5088630;28;43968;-69
2023/05/27 02:13:25;;;;;;;1.60;1.60;;;20.80;69.10;;;;;;5091821;27;44177;-69
2023/05/27 02:15:53;;;;;;;1.40;1.40;;;20.80;69.10;;;;;;5088669;28;45695;-69
2023/05/27 02:18:22;;;;;;;1.50;1.50;;;20.80;69.10;;;;;;5088022;28;44856;-69
2023/05/27 02:20:50;;;;;;;1.60;1.60;;;20.80;69.30;;;;;;5088208;28;43375;-69
2023/05/27 02:23:19;;;;;;;1.63;1.63;;;20.80;69.30;;;;;;5089123;27;43505;-70
2023/05/27 02:25:48;;;;;;;1.73;1.70;;;20.80;69.20;;;;;;5087983;28;46084;-69
2023/05/27 02:28:16;;;;;;;1.30;1.30;;;20.80;69.10;;;;;;5088578;28;43369;-69
2023/05/27 02:30:46;;;;;;;1.67;1.67;;;20.80;69.10;;;;;;5087924;28;43415;-69
2023/05/27 02:33:14;;;;;;;1.80;1.80;;;20.70;69.40;;;;;;5087856;27;43572;-70
2023/05/27 02:35:43;;;;;;;1.70;1.70;;;20.70;69.50;;;;;;5088637;27;44036;-70
2023/05/27 02:38:13;;;;;;;1.57;1.53;;;20.80;69.20;;;;;;5088153;27;44419;-69
2023/05/27 02:40:42;;;;;;;1.40;1.40;;;21.00;69.00;;;;;;5087524;28;43372;-68
2023/05/27 02:43:10;;;;;;;1.50;1.50;;;21.00;68.80;;;;;;5088002;28;43565;-69
2023/05/27 02:45:38;;;;;;;1.60;1.60;;;21.00;68.80;;;;;;5087703;28;45839;-69
2023/05/27 02:48:08;;;;;;;1.70;1.70;;;21.00;69.10;;;;;;5087212;28;44805;-69
2023/05/27 02:50:39;;;;;;;1.53;1.53;;;20.90;68.90;;;;;;5089701;27;43405;-70
2023/05/27 02:53:07;;;;;;;1.50;1.50;;;20.90;68.90;;;;;;5089431;27;43505;-69
2023/05/27 02:55:35;;;;;;;1.63;1.63;;;20.90;68.90;;;;;;5089112;27;44743;-69
2023/05/27 02:58:04;;;;;;;1.50;1.50;;;20.80;68.90;;;;;;5085569;28;45671;-69
2023/05/27 03:00:34;;;;;;;1.60;1.60;;;20.80;69.20;;;;;;5087333;28;43955;-71
2023/05/27 03:03:04;;;;;;;1.40;1.40;;;20.80;69.30;;;;;;5085215;28;43369;-70
2023/05/27 03:05:33;;;;;;;1.43;1.43;;;20.80;69.30;;;;;;5087749;28;43652;-69
2023/05/27 03:08:01;;;;;;;1.60;1.60;;;20.70;69.10;;;;;;5086746;27;44913;-71
2023/05/27 03:10:30;;;;;;;1.60;1.60;;;20.70;69.10;;;;;;5092199;27;43402;-70
2023/05/27 03:12:58;;;;;;;1.80;1.70;;;20.70;69.50;;;;;;5089109;27;43951;-69
2023/05/27 03:15:29;;;;;;;1.70;1.70;;;20.80;69.60;;;;;;5088470;27;43842;-71
2023/05/27 03:17:57;;;;;;;2.17;1.90;;;20.80;69.10;;;;;;5087061;28;44836;-70
2023/05/27 03:20:25;;;;;;;2.00;1.90;;;20.90;68.80;;;;;;5087304;28;43422;-69
2023/05/27 03:22:56;;;;;;;2.57;2.37;;;20.90;68.60;;;;;;5087153;28;43870;-70
2023/05/27 03:25:24;;;;;;;5.73;3.47;;;20.90;68.70;;;;;;5087710;27;43614;-70
2023/05/27 03:27:53;;;;;;;4.63;2.87;;;20.90;69.10;;;;;;5082416;28;44356;-69
2023/05/27 03:30:21;;;;;;;7.93;3.63;;;20.90;69.00;;;;;;5091780;27;43450;-70
2023/05/27 03:32:52;;;;;;;8.00;3.63;;;20.90;69.10;;;;;;5083860;28;43521;-69
2023/05/27 03:35:27;;;;;;;6.23;3.60;;;20.80;68.90;;;;;;5086404;28;43832;-71
2023/05/27 03:37:57;;;;;;;6.30;3.70;;;20.80;69.00;;;;;;5085770;28;43695;-70
2023/05/27 03:40:26;;;;;;;6.93;3.73;;;20.80;69.30;;;;;;5088327;27;43461;-70
2023/05/27 03:42:54;;;;;;;6.70;3.40;;;20.70;69.30;;;;;;5086633;28;43560;-70
2023/05/27 03:45:24;;;;;;;5.73;3.70;;;20.80;69.30;;;;;;5086338;28;44728;-69
2023/05/27 03:47:53;;;;;;;5.20;3.73;;;20.70;69.20;;;;;;5086639;27;43527;-70
2023/05/27 03:50:21;;;;;;;6.10;3.57;;;20.70;69.20;;;;;;5086422;28;43525;-70
2023/05/27 03:52:49;;;;;;;4.63;3.40;;;20.70;69.60;;;;;;5086487;28;43457;-69
2023/05/27 03:55:20;;;;;;;6.80;4.17;;;20.70;69.60;;;;;;5087519;27;43705;-69
2023/05/27 03:57:48;;;;;;;6.63;3.57;;;20.70;69.50;;;;;;5087562;27;43381;-68
2023/05/27 04:00:17;;;;;;;5.70;3.70;;;20.70;70.10;;;;;;5087733;27;43444;-69
2023/05/27 04:02:48;;;;;;;7.33;4.03;;;20.60;69.40;;;;;;5081442;27;43525;-70
2023/05/27 04:05:17;;;;;;;5.20;3.80;;;20.60;69.70;;;;;;5090784;27;44039;-70
2023/05/27 04:07:45;;;;;;;10.03;4.23;;;20.70;69.70;;;;;;5085762;28;44995;-70
2023/05/27 04:10:13;;;;;;;5.97;4.03;;;20.80;69.30;;;;;;5087888;27;43343;-70
2023/05/27 04:12:42;;;;;;;7.63;4.20;;;20.90;68.80;;;;;;5086711;27;43722;-71
2023/05/27 04:15:10;;;;;;;8.37;4.27;;;21.10;68.40;;;;;;5087035;27;43756;-70
2023/05/27 04:17:38;;;;;;;7.30;4.10;;;21.10;68.30;;;;;;5086221;27;43363;-70
2023/05/27 04:20:13;;;;;;;7.50;4.27;;;21.10;68.30;;;;;;5085946;28;43396;-70
2023/05/27 04:22:46;;;;;;;6.30;4.00;;;21.10;68.40;;;;;;5083227;27;43420;-70
2023/05/27 04:25:14;;;;;;;4.00;3.27;;;21.00;68.50;;;;;;5080568;28;43878;-70
2023/05/27 04:28:03;;;;;;;7.10;4.53;;;20.90;68.60;;;;;;5086278;27;43992;-70
2023/05/27 04:30:33;;;;;;;5.53;3.93;;;20.80;68.80;;;;;;5085153;28;43401;-70
2023/05/27 04:33:02;;;;;;;6.33;3.93;;;20.80;69.00;;;;;;5088601;27;44046;-70
2023/05/27 04:35:31;;;;;;;7.43;4.10;;;20.70;69.00;;;;;;5087374;27;44015;-70
2023/05/27 04:38:00;;;;;;;5.23;3.57;;;20.70;69.10;;;;;;5086059;28;43972;-69
2023/05/27 04:40:35;;;;;;;6.80;3.87;;;20.70;69.30;;;;;;5086244;27;43905;-70
2023/05/27 04:43:21;;;;;;;8.20;4.17;;;20.60;69.30;;;;;;5086275;28;43498;-71
2023/05/27 04:45:49;;;;;;;7.97;4.43;;;20.60;69.70;;;;;;5086173;28;45929;-70
2023/05/27 04:48:17;;;;;;;7.00;4.10;;;20.60;69.80;;;;;;5085713;28;45168;-71
2023/05/27 04:50:45;;;;;;;4.83;3.93;;;20.80;69.30;;;;;;5086503;28;43438;-70
2023/05/27 04:53:13;;;;;;;6.90;4.07;;;21.00;68.80;;;;;;5080048;28;43547;-70
2023/05/27 04:55:41;;;;;;;5.23;3.83;;;21.20;68.00;;;;;;5085987;28;43819;-69
2023/05/27 04:58:10;;;;;;;5.77;4.20;;;21.40;67.30;;;;;;5087207;27;43405;-69
2023/05/27 05:00:49;;;;;;;5.80;4.23;;;21.70;66.70;;;;;;5085685;28;43457;-69
2023/05/27 05:03:21;;;;;;;5.77;3.80;;;21.90;66.00;;;;;;5083105;27;43553;-69
2023/05/27 05:05:51;;;;;;;6.00;4.10;;;22.00;65.50;;;;;;5081920;28;46668;-70
2023/05/27 05:08:19;;;;;;;6.10;4.10;;;22.10;65.00;;;;;;5079866;28;44991;-70
2023/05/27 05:10:49;;;;;;;6.53;4.20;;;22.30;64.80;;;;;;5085793;28;43393;-69
2023/05/27 05:13:18;;;;;;;7.97;4.30;;;22.20;64.50;;;;;;5086074;28;43434;-69
2023/05/27 05:15:47;;;;;;;4.77;4.03;;;22.20;64.80;;;;;;5085404;28;46082;-72
2023/05/27 05:18:15;;;;;;;6.20;4.30;;;22.00;65.90;;;;;;5085856;28;44733;-69
2023/05/27 05:20:44;;;;;;;5.10;3.77;;;21.80;65.70;;;;;;5085713;28;43462;-70
2023/05/27 05:23:14;;;;;;;4.67;3.67;;;21.70;66.30;;;;;;5086726;27;44020;-70
2023/05/27 05:25:44;;;;;;;4.37;3.80;;;21.60;66.60;;;;;;5084463;27;43915;-69
2023/05/27 05:28:12;;;;;;;5.93;4.17;;;21.50;66.90;;;;;;5085385;28;45073;-70
2023/05/27 05:30:41;;;;;;;4.90;4.10;;;21.40;67.20;;;;;;5087518;27;43915;-69
2023/05/27 05:33:14;;;;;;;5.93;4.10;;;21.30;67.90;;;;;;5087858;28;44046;-69
2023/05/27 05:35:42;;;;;;;4.97;3.60;;;21.20;67.90;;;;;;5088221;28;45699;-69
2023/05/27 05:38:19;;;;;;;5.83;4.10;;;21.20;67.70;;;;;;5088861;28;43404;-69
2023/05/27 05:40:52;;;;;;;5.17;3.80;;;21.30;67.40;;;;;;5088447;28;43419;-69
2023/05/27 05:43:20;;;;;;;5.20;3.73;;;21.30;67.40;;;;;;5082909;28;43641;-71
2023/05/27 05:45:50;;;;;;;4.17;3.60;;;21.30;67.60;;;;;;5088494;28;44041;-70
2023/05/27 05:48:21;;;;;;;4.17;3.43;;;21.20;67.90;;;;;;5088279;28;44702;-69
2023/05/27 05:50:49;;;;;;;5.57;4.00;;;21.20;68.10;;;;;;5088745;28;43442;-69
2023/05/27 05:53:18;;;;;;;5.90;4.23;;;21.20;68.10;;;;;;5088816;27;43440;-70
2023/05/27 05:55:47;;;;;;;4.20;3.80;;;21.10;68.20;;;;;;5088560;27;44051;-71
2023/05/27 05:58:18;;;;;;;6.17;3.93;;;21.00;68.10;;;;;;5088309;27;43502;-70
2023/05/27 06:00:48;;;;;;;4.10;3.63;;;21.00;68.80;;;;;;5087973;28;43541;-70
2023/05/27 06:03:31;;;;;;;4.43;3.80;;;21.00;68.80;;;;;;5088833;28;44063;-70
2023/05/27 06:06:02;;;;;;;4.17;3.73;;;20.90;68.80;;;;;;5087989;28;45997;-71
2023/05/27 06:08:31;;;;;;;5.47;4.10;;;20.90;68.70;;;;;;5087777;27;43501;-69
2023/05/27 06:11:05;;;;;;;4.43;3.43;;;20.80;68.90;;;;;;5087890;28;43469;-69
2023/05/27 06:13:35;;;;;;;4.43;3.80;;;20.80;69.20;;;;;;5088610;28;43464;-70
2023/05/27 06:16:06;;;;;;;4.77;3.73;;;20.90;68.90;;;;;;5087449;27;44066;-70
2023/05/27 06:18:36;;;;;;;5.40;3.80;;;21.00;68.50;;;;;;5079716;27;43772;-70
2023/05/27 06:21:04;;;;;;;3.73;3.37;;;21.20;68.20;;;;;;5088429;27;43757;-69
2023/05/27 06:23:49;;;;;;;3.77;3.47;;;21.20;67.90;;;;;;5087154;27;43553;-70
2023/05/27 06:26:18;;;;;;;4.63;3.67;;;21.20;67.80;;;;;;5087136;28;46004;-70
2023/05/27 06:28:50;;;;;;;3.70;3.40;;;21.20;68.10;;;;;;5088194;28;44647;-70
2023/05/27 06:31:18;;;;;;;5.20;3.73;;;21.10;68.20;;;;;;5088075;27;43402;-70
2023/05/27 06:33:48;;;;;;;4.47;3.50;;;21.00;68.80;;;;;;5090060;27;43723;-69
2023/05/27 06:36:18;;;;;;;3.93;3.63;;;20.90;68.90;;;;;;5087785;28;45739;-68
2023/05/27 06:38:46;;;;;;;3.70;3.40;;;20.90;69.10;;;;;;5088435;27;44737;-70
2023/05/27 06:41:14;;;;;;;4.63;3.63;;;20.90;69.00;;;;;;5087693;27;43371;-69
2023/05/27 06:43:51;;;;;;;3.63;3.33;;;20.80;68.70;;;;;;5088534;28;43513;-70
2023/05/27 06:46:33;;;;;;;4.43;3.83;;;20.80;69.30;;;;;;5087647;28;44402;-70
2023/05/27 06:49:09;;;;;;;3.97;3.37;;;20.80;69.50;;;;;;5081822;27;43492;-69
2023/05/27 06:51:37;;;;;;;4.50;3.40;;;20.70;69.40;;;;;;5087606;28;43364;-70
2023/05/27 06:54:06;;;;;;;3.90;3.53;;;20.70;69.10;;;;;;5087505;27;43528;-70
2023/05/27 06:56:42;;;;;;;4.00;3.60;;;20.70;69.20;;;;;;5087386;28;44891;-69
2023/05/27 06:59:30;;;;;;;3.90;3.50;;;20.70;69.80;;;;;;5088876;28;43559;-70
2023/05/27 07:01:58;;;;;;;4.00;3.70;;;20.80;69.40;;;;;;5084725;27;43417;-70
2023/05/27 07:04:28;;;;;;;3.47;3.17;;;20.80;68.80;;;;;;5082451;28;43658;-71
2023/05/27 07:06:59;;;;;;;3.53;3.23;;;21.00;68.40;;;;;;5082466;28;43845;-69
2023/05/27 07:09:27;;;;;;;3.53;3.33;;;21.10;68.20;;;;;;5088450;28;44251;-70
2023/05/27 07:11:55;;;;;;;3.83;3.17;;;21.10;68.30;;;;;;5087806;28;43531;-69
2023/05/27 07:14:41;;;;;;;3.63;3.30;;;21.10;68.40;;;;;;5082674;27;43472;-70
2023/05/27 07:17:11;;;;;;;4.23;3.40;;;21.00;68.40;;;;;;5087281;28;44824;-70
2023/05/27 07:19:41;;;;;;;3.43;3.13;;;20.90;68.90;;;;;;5087159;27;44520;-70
2023/05/27 07:22:15;;;;;;;4.17;3.50;;;20.80;69.10;;;;;;5084483;28;43365;-70
2023/05/27 07:24:44;;;;;;;3.83;3.23;;;20.80;69.20;;;;;;5082222;27;43374;-71
2023/05/27 07:27:12;;;;;;;3.13;2.93;;;20.80;69.10;;;;;;5087044;28;44043;-70
2023/05/27 07:29:45;;;;;;;3.70;3.40;;;20.80;69.00;;;;;;5087039;28;44646;-69
2023/05/27 07:32:13;;;;;;;3.73;3.40;;;20.70;69.50;;;;;;5082774;27;43975;-70
2023/05/27 07:34:43;;;;;;;3.23;3.03;;;20.70;69.60;;;;;;5087476;28;43498;-70
2023/05/27 07:37:11;;;;;;;3.00;2.80;;;20.70;69.60;;;;;;5094854;27;46006;-70
2023/05/27 07:39:39;;;;;;;3.50;3.10;;;20.70;69.20;;;;;;5090278;27;44717;-70
2023/05/27 07:42:08;;;;;;;3.57;3.27;;;20.60;69.10;;;;;;5075260;27;43443;-69
2023/05/27 07:44:36;;;;;;;3.40;3.10;;;20.60;69.50;;;;;;5087217;28;43473;-70
2023/05/27 07:47:05;;;;;;;3.30;3.10;;;20.60;69.90;;;;;;5079964;27;44093;-70
2023/05/27 07:49:33;;;;;;;3.40;3.20;;;20.70;69.50;;;;;;5088391;27;43325;-69
2023/05/27 07:52:28;;;;;;;3.60;3.40;;;20.80;69.10;;;;;;5080494;28;43423;-71
2023/05/27 07:54:57;;;;;;;3.30;3.10;;;21.00;68.50;;;;;;5086770;28;43564;-70
2023/05/27 07:57:25;;;;;;;3.43;3.13;;;21.00;68.40;;;;;;5087230;28;45216;-69
2023/05/27 07:59:55;;;;;;;3.20;3.00;;;21.00;68.40;;;;;;5086931;28;44784;-70
2023/05/27 08:02:31;;;;;;;3.00;2.90;;;21.00;68.60;;;;;;5086568;27;43432;-69
2023/05/27 08:05:01;;;;;;;3.50;3.20;;;20.90;68.50;;;;;;5086661;28;43568;-69
2023/05/27 08:08:06;;;;;;;3.10;2.90;;;20.80;69.10;;;;;;5079855;28;43770;-69
2023/05/27 08:11:06;;;;;;;3.60;3.30;;;20.80;69.30;;;;;;5076668;27;43578;-70
2023/05/27 08:13:54;;;;;;;3.47;3.23;;;20.70;69.10;;;;;;5080534;28;43428;-70
2023/05/27 08:16:42;;;;;;;3.33;3.03;;;20.70;69.00;;;;;;5088102;27;43447;-70
2023/05/27 08:19:28;;;;;;;3.13;2.93;;;20.60;69.50;;;;;;5089692;27;43917;-70
2023/05/27 08:22:03;;;;;;;3.30;3.10;;;20.60;69.70;;;;;;5080389;28;43373;-69
2023/05/27 08:25:12;;;;;;;2.90;2.70;;;20.60;69.70;;;;;;5084063;28;43465;-70
2023/05/27 08:28:01;;;;;;;2.87;2.67;;;20.60;69.30;;;;;;5067288;28;43657;-71
2023/05/27 08:31:02;;;;;;;3.47;3.20;;;20.60;69.50;;;;;;5025628;28;43887;-69
2023/05/27 08:33:43;;;;;;;3.30;3.10;;;20.60;70.10;;;;;;5086085;28;44777;-70
2023/05/27 08:36:11;;;;;;;3.03;2.83;;;20.70;69.70;;;;;;5086594;27;43479;-70
2023/05/27 08:38:41;;;;;;;3.20;3.00;;;20.80;69.00;;;;;;5086286;27;44023;-70
2023/05/27 08:41:18;;;;;;;3.37;3.10;;;20.90;68.70;;;;;;5086273;28;45345;-69
2023/05/27 08:43:47;;;;;;;3.30;3.10;;;21.00;68.50;;;;;;5086003;28;44901;-69
2023/05/27 08:46:16;;;;;;;3.47;3.17;;;21.00;68.70;;;;;;5081464;27;43419;-69
2023/05/27 08:48:46;;;;;;;2.90;2.70;;;20.90;68.70;;;;;;5086235;28;43583;-70
2023/05/27 08:51:14;;;;;;;2.63;2.50;;;20.80;68.50;;;;;;5085134;28;45807;-70
2023/05/27 08:53:43;;;;;;;3.20;3.00;;;20.80;69.20;;;;;;5085914;28;44984;-70
2023/05/27 08:56:12;;;;;;;2.90;2.70;;;20.70;69.50;;;;;;5081267;28;43425;-70
2023/05/27 08:58:45;;;;;;;2.87;2.67;;;20.70;69.50;;;;;;5090081;27;43538;-70
2023/05/27 09:01:13;;;;;;;3.30;3.00;;;20.70;69.10;;;;;;5087995;27;44235;-70
2023/05/27 09:03:41;;;;;;;2.90;2.70;;;20.60;69.10;;;;;;5084181;27;43422;-70
2023/05/27 09:06:09;;;;;;;2.80;2.60;;;20.60;69.70;;;;;;5088947;28;44115;-70
2023/05/27 09:08:37;;;;;;;2.87;2.67;;;20.60;69.90;;;;;;5092321;27;43862;-70
2023/05/27 09:11:21;;;;;;;2.50;2.40;;;20.60;69.70;;;;;;5089492;28;43843;-71
2023/05/27 09:13:51;;;;;;;2.93;2.77;;;20.60;69.40;;;;;;5089357;27;45370;-70
2023/05/27 09:16:21;;;;;;;2.60;2.40;;;20.50;69.30;;;;;;5090168;27;43799;-70
2023/05/27 09:18:49;;;;;;;2.60;2.50;;;20.50;69.70;;;;;;5089201;27;43580;-69
2023/05/27 09:21:17;;;;;;;2.57;2.47;;;20.50;70.00;;;;;;5085132;27;43609;-70
2023/05/27 09:23:46;;;;;;;2.63;2.50;;;20.60;69.80;;;;;;5086292;27;43545;-70
2023/05/27 09:26:14;;;;;;;2.70;2.60;;;20.80;69.30;;;;;;5088239;28;43398;-70
2023/05/27 09:28:43;;;;;;;2.77;2.67;;;20.90;68.90;;;;;;5089757;27;43989;-70
2023/05/27 09:31:12;;;;;;;2.83;2.70;;;20.90;68.80;;;;;;5085928;28;43824;-70
2023/05/27 09:33:41;;;;;;;2.70;2.60;;;20.90;68.80;;;;;;5090875;27;43408;-70
2023/05/27 09:36:09;;;;;;;2.40;2.30;;;20.90;68.60;;;;;;5090320;27;43384;-69
2023/05/27 09:38:37;;;;;;;2.97;2.70;;;20.80;68.60;;;;;;5089281;28;43498;-69
2023/05/27 09:41:05;;;;;;;2.97;2.77;;;20.80;69.10;;;;;;5090399;27;43614;-69
2023/05/27 09:43:33;;;;;;;2.60;2.50;;;20.70;69.50;;;;;;5087183;27;44463;-69
2023/05/27 09:46:02;;;;;;;2.70;2.50;;;20.70;69.50;;;;;;5090238;28;43416;-69
2023/05/27 09:48:32;;;;;;;2.47;2.37;;;20.70;69.10;;;;;;5089065;28;43474;-69
2023/05/27 09:51:00;;;;;;;2.60;2.50;;;20.60;69.10;;;;;;5090137;27;43835;-70
2023/05/27 09:53:30;;;;;;;2.63;2.53;;;20.60;69.50;;;;;;5088396;28;44784;-69
2023/05/27 09:55:58;;;;;;;2.50;2.40;;;20.60;70.00;;;;;;5090327;27;43389;-70
2023/05/27 09:58:26;;;;;;;2.23;2.13;;;20.60;69.80;;;;;;5091046;27;43419;-69
2023/05/27 10:00:54;;;;;;;2.40;2.30;;;20.50;69.30;;;;;;5088386;28;47195;-69
2023/05/27 10:03:23;;;;;;;2.23;2.13;;;20.60;69.50;;;;;;5091027;27;43385;-69
2023/05/27 10:05:53;;;;;;;2.23;2.13;;;20.60;69.80;;;;;;5091512;27;43969;-69
2023/05/27 10:08:21;;;;;;;2.43;2.33;;;20.60;70.10;;;;;;5089177;28;43449;-69
2023/05/27 10:10:53;;;;;;;2.50;2.40;;;20.60;70.00;;;;;;5090002;27;43615;-69
2023/05/27 10:13:22;;;;;;;2.50;2.40;;;20.70;69.50;;;;;;5089447;27;43339;-68
2023/05/27 10:15:52;;;;;;;2.70;2.60;;;20.80;69.10;;;;;;5088275;27;43328;-69
2023/05/27 10:18:24;;;;;;;2.50;2.40;;;20.90;69.00;;;;;;5088447;28;43562;-69
2023/05/27 10:20:54;;;;;;;2.50;2.40;;;20.90;69.00;;;;;;5088722;28;43646;-69
2023/05/27 10:23:25;;;;;;;2.27;2.17;;;20.90;68.80;;;;;;5089620;27;43466;-69
2023/05/27 10:25:55;;;;;;;2.17;2.07;;;20.80;68.80;;;;;;5089389;27;43473;-69
2023/05/27 10:28:27;;;;;;;2.33;2.23;;;20.70;69.20;;;;;;5081990;28;44308;-70
2023/05/27 10:31:04;;;;;;;2.30;2.20;;;20.70;69.60;;;;;;5088818;27;43578;-70
2023/05/27 10:33:35;;;;;;;2.40;2.30;;;20.70;69.50;;;;;;5083510;28;43314;-69
2023/05/27 10:36:09;;;;;;;2.13;2.03;;;20.70;69.30;;;;;;5088750;27;43468;-68
2023/05/27 10:38:37;;;;;;;2.40;2.30;;;20.60;69.30;;;;;;5087823;27;44100;-70
2023/05/27 10:41:06;;;;;;;2.33;2.23;;;20.60;69.80;;;;;;5081665;28;44208;-69
2023/05/27 10:43:34;;;;;;;2.33;2.23;;;20.60;70.00;;;;;;5088807;27;43545;-69
2023/05/27 10:46:04;;;;;;;2.10;2.00;;;20.60;69.70;;;;;;5089030;27;44020;-69
2023/05/27 10:48:33;;;;;;;2.30;2.20;;;20.50;69.50;;;;;;5088390;28;43565;-69
2023/05/27 10:51:01;;;;;;;2.27;2.17;;;20.60;69.60;;;;;;5085011;28;45459;-70
2023/05/27 10:53:30;;;;;;;2.40;2.30;;;20.50;70.00;;;;;;5085303;28;43985;-69
2023/05/27 10:55:59;;;;;;;3.33;2.40;;;20.60;70.20;;;;;;5080916;28;43443;-70
2023/05/27 10:58:27;;;;;;;4.60;2.17;;;20.70;69.90;;;;;;5089795;27;43911;-71
2023/05/27 11:00:56;;;;;;;2.50;2.40;;;20.80;69.30;;;;;;5088915;27;43597;-69
2023/05/27 11:03:25;;;;;;;4.10;2.47;;;20.90;69.00;;;;;;5088768;27;43422;-69
2023/05/27 11:06:03;;;;;;;2.27;2.13;;;20.90;69.00;;;;;;5082607;27;43474;-70
2023/05/27 11:08:32;;;;;;;2.37;2.13;;;20.90;68.90;;;;;;5088596;27;43501;-69
2023/05/27 11:11:01;;;;;;;2.27;2.17;;;20.80;68.70;;;;;;5089065;27;43667;-70
2023/05/27 11:13:33;;;;;;;2.30;2.20;;;20.80;68.90;;;;;;5088724;27;43496;-69
2023/05/27 11:16:02;;;;;;;2.37;2.27;;;20.70;69.40;;;;;;5088236;28;43352;-69
2023/05/27 11:18:37;;;;;;;2.03;1.93;;;20.70;69.70;;;;;;5088901;27;43689;-69
2023/05/27 11:21:06;;;;;;;2.10;2.00;;;20.70;69.50;;;;;;5088522;27;43869;-69
2023/05/27 11:23:40;;;;;;;3.33;2.53;;;20.60;69.30;;;;;;5086744;28;43718;-69
2023/05/27 11:26:15;;;;;;;2.40;2.30;;;20.60;69.30;;;;;;5087088;28;43418;-69
2023/05/27 11:28:47;;;;;;;2.13;2.03;;;20.60;69.90;;;;;;5088620;27;43405;-70
2023/05/27 11:31:15;;;;;;;1.90;1.90;;;20.60;69.80;;;;;;5083341;28;45701;-69
2023/05/27 11:33:44;;;;;;;1.97;1.97;;;20.60;69.50;;;;;;5088370;27;43421;-69
2023/05/27 11:36:14;;;;;;;2.60;2.47;;;20.60;69.50;;;;;;5087941;27;43491;-69
2023/05/27 11:38:54;;;;;;;2.17;2.07;;;20.50;69.60;;;;;;5088888;27;43388;-68
2023/05/27 11:41:22;;;;;;;2.20;2.10;;;20.60;70.20;;;;;;5086404;28;43739;-68
2023/05/27 11:43:51;;;;;;;2.53;2.43;;;20.60;70.10;;;;;;5088414;27;43817;-68
2023/05/27 11:46:19;;;;;;;2.27;2.17;;;20.70;69.70;;;;;;5084189;28;43365;-69
2023/05/27 11:48:47;;;;;;;2.10;2.03;;;20.80;69.20;;;;;;5086493;27;43411;-69
2023/05/27 11:51:15;;;;;;;2.10;2.10;;;20.90;69.10;;;;;;5087111;27;43773;-68
2023/05/27 11:53:45;;;;;;;1.87;1.87;;;20.90;69.00;;;;;;5085256;27;43743;-70
2023/05/27 11:56:15;;;;;;;1.90;1.90;;;20.90;69.00;;;;;;5091981;27;43473;-70
2023/05/27 11:58:43;;;;;;;2.20;2.10;;;20.80;68.90;;;;;;5084479;27;43730;-70
2023/05/27 12:01:11;;;;;;;1.90;1.90;;;20.80;69.10;;;;;;5083819;28;44555;-70
2023/05/27 12:03:39;;;;;;;2.53;2.43;;;20.70;69.70;;;;;;5078281;28;43500;-69
2023/05/27 12:06:07;;;;;;;2.60;2.50;;;20.70;69.50;;;;;;5084403;27;43365;-69
2023/05/27 12:08:35;;;;;;;1.83;1.80;;;20.60;69.20;;;;;;5086943;28;43991;-69
2023/05/27 12:11:03;;;;;;;1.90;1.87;;;20.60;69.30;;;;;;5087529;28;43929;-69
2023/05/27 12:13:33;;;;;;;2.50;2.40;;;20.60;69.50;;;;;;5087597;27;43578;-70
2023/05/27 12:16:02;;;;;;;2.00;2.00;;;20.50;69.90;;;;;;5083010;27;43409;-69
2023/05/27 12:18:31;;;;;;;2.27;2.07;;;20.60;69.90;;;;;;5086461;28;43461;-70
2023/05/27 12:20:59;;;;;;;2.07;2.07;;;20.60;69.70;;;;;;5086245;28;45682;-70
2023/05/27 12:23:27;;;;;;;2.30;2.20;;;20.60;69.60;;;;;;5087853;27;43349;-70
2023/05/27 12:25:55;;;;;;;2.13;2.03;;;20.50;69.60;;;;;;5087578;27;43426;-70
2023/05/27 12:28:22;;;;;;;2.00;2.00;;;20.50;70.20;;;;;;5082880;27;43481;-69
2023/05/27 12:30:52;;;;;;;2.27;2.17;;;20.50;70.20;;;;;;5086309;28;43611;-70
2023/05/27 12:33:20;;;;;;;2.47;2.37;;;20.60;69.90;;;;;;5085285;27;43613;-69
2023/05/27 12:35:48;;;;;;;2.73;2.50;;;20.80;69.10;;;;;;5087060;27;43484;-70
2023/05/27 12:38:16;;;;;;;3.40;2.77;;;20.90;68.50;;;;;;5079007;27;43613;-70
2023/05/27 12:40:45;;;;;;;2.97;2.77;;;20.90;67.90;;;;;;5086903;27;43624;-69
2023/05/27 12:43:13;;;;;;;2.87;2.50;;;20.90;68.20;;;;;;5087322;27;43449;-70
2023/05/27 12:45:40;;;;;;;3.07;2.80;;;20.80;68.00;;;;;;5087395;27;43359;-69
2023/05/27 12:48:10;;;;;;;6.70;4.40;;;20.70;68.20;;;;;;5081713;27;43422;-70
2023/05/27 12:50:38;;;;;;;6.13;4.13;;;20.70;66.90;;;;;;5085357;28;45952;-70
2023/05/27 12:53:08;;;;;;;6.70;4.00;;;20.60;66.90;;;;;;5089490;27;43404;-70
2023/05/27 12:55:36;;;;;;;3.87;3.57;;;20.60;67.90;;;;;;5087031;28;43466;-69
2023/05/27 12:58:04;;;;;;;4.43;4.03;;;20.60;67.10;;;;;;5087701;27;44060;-70
2023/05/27 13:00:34;;;;;;;9.43;5.13;;;20.50;67.00;;;;;;5085681;28;46605;-69
2023/05/27 13:03:02;;;;;;;7.77;4.20;;;20.50;66.90;;;;;;5078991;28;44054;-69
2023/05/27 13:05:32;;;;;;;4.80;4.40;;;20.50;67.10;;;;;;5078994;28;43367;-70